createdAt,value
2023-05-04T00:00:45.410Z,1019.64
2023-05-04T00:01:45.410Z,1019.61
2023-05-04T00:02:45.477Z,1019.64
2023-05-04T00:03:45.627Z,1019.57
2023-05-04T00:04:45.435Z,1019.58
2023-05-04T00:05:45.355Z,1019.57
2023-05-04T00:06:45.302Z,1019.54
2023-05-04T00:07:45.293Z,1019.50
2023-05-04T00:08:45.291Z,1019.52
2023-05-04T00:09:45.284Z,1019.45
2023-05-04T00:10:45.306Z,1019.50
2023-05-04T00:11:45.234Z,1019.47
2023-05-04T00:12:45.267Z,1019.46
2023-05-04T00:13:45.250Z,1019.43
2023-05-04T00:14:45.188Z,1019.44
2023-05-04T00:15:45.216Z,1019.40
2023-05-04T00:16:45.222Z,1019.45
2023-05-04T00:17:45.225Z,1019.44
2023-05-04T00:18:45.204Z,1019.44
2023-05-04T00:19:45.173Z,1019.40
2023-05-04T00:20:45.138Z,1019.44
2023-05-04T00:21:45.121Z,1019.37
2023-05-04T00:22:45.117Z,1019.36
2023-05-04T00:23:45.115Z,1019.41
2023-05-04T00:24:45.117Z,1019.37
2023-05-04T00:25:45.056Z,1019.37
2023-05-04T00:26:45.036Z,1019.41
2023-05-04T00:27:45.093Z,1019.36
2023-05-04T00:28:45.055Z,1019.40
2023-05-04T00:29:45.000Z,1019.41
2023-05-04T00:30:45.014Z,1019.36
2023-05-04T00:31:44.992Z,1019.42
2023-05-04T00:32:45.028Z,1019.44
2023-05-04T00:33:44.954Z,1019.46
2023-05-04T00:34:44.938Z,1019.36
2023-05-04T00:35:44.950Z,1019.47
2023-05-04T00:36:44.945Z,1019.39
2023-05-04T00:37:44.948Z,1019.44
2023-05-04T00:38:44.870Z,1019.41
2023-05-04T00:39:44.931Z,1019.42
2023-05-04T00:40:44.852Z,1019.39
2023-05-04T00:41:44.870Z,1019.39
2023-05-04T00:42:44.854Z,1019.35
2023-05-04T00:43:44.858Z,1019.34
2023-05-04T00:44:44.822Z,1019.31
2023-05-04T00:45:44.825Z,1019.31
2023-05-04T00:46:44.839Z,1019.29
2023-05-04T00:47:44.827Z,1019.25
2023-05-04T00:48:44.821Z,1019.27
2023-05-04T00:49:44.777Z,1019.22
2023-05-04T00:50:44.742Z,1019.19
2023-05-04T00:51:44.776Z,1019.26
2023-05-04T00:52:44.710Z,1019.26
2023-05-04T00:53:44.728Z,1019.22
2023-05-04T00:54:44.733Z,1019.20
2023-05-04T00:55:44.716Z,1019.18
2023-05-04T00:56:44.748Z,1019.15
2023-05-04T00:57:44.676Z,1019.18
2023-05-04T00:58:44.618Z,1019.18
2023-05-04T00:59:44.694Z,1019.19
2023-05-04T01:00:44.662Z,1019.22
2023-05-04T01:01:44.613Z,1019.20
2023-05-04T01:02:44.621Z,1019.21
2023-05-04T01:03:44.618Z,1019.24
2023-05-04T01:04:44.558Z,1019.20
2023-05-04T01:05:44.561Z,1019.17
2023-05-04T01:06:44.524Z,1019.22
2023-05-04T01:07:44.523Z,1019.16
2023-05-04T01:08:44.532Z,1019.20
2023-05-04T01:09:44.514Z,1019.18
2023-05-04T01:10:44.511Z,1019.16
2023-05-04T01:11:44.488Z,1019.17
2023-05-04T01:12:44.504Z,1019.15
2023-05-04T01:13:44.471Z,1019.10
2023-05-04T01:14:44.437Z,1019.15
2023-05-04T01:15:44.441Z,1019.06
2023-05-04T01:16:44.418Z,1019.09
2023-05-04T01:17:44.442Z,1019.09
2023-05-04T01:18:44.362Z,1019.09
2023-05-04T01:19:44.377Z,1019.12
2023-05-04T01:20:44.386Z,1019.13
2023-05-04T01:21:45.301Z,1019.07
2023-05-04T01:22:44.375Z,1019.09
2023-05-04T01:23:44.327Z,1019.09
2023-05-04T01:24:44.317Z,1019.09
2023-05-04T01:25:44.317Z,1019.05
2023-05-04T01:26:44.301Z,1019.04
2023-05-04T01:27:44.274Z,1019.09
2023-05-04T01:28:44.262Z,1019.04
2023-05-04T01:29:44.223Z,1019.08
2023-05-04T01:30:44.231Z,1018.99
2023-05-04T01:31:44.247Z,1019.00
2023-05-04T01:32:44.246Z,1018.94
2023-05-04T01:33:44.188Z,1018.95
2023-05-04T01:34:44.175Z,1018.95
2023-05-04T01:35:44.178Z,1018.96
2023-05-04T01:36:44.144Z,1018.94
2023-05-04T01:37:44.414Z,1018.95
2023-05-04T01:38:44.121Z,1018.93
2023-05-04T01:39:44.084Z,1018.92
2023-05-04T01:40:44.080Z,1018.90
2023-05-04T01:41:44.054Z,1018.93
2023-05-04T01:42:44.066Z,1018.91
2023-05-04T01:43:44.028Z,1018.96
2023-05-04T01:44:44.050Z,1018.91
2023-05-04T01:45:44.044Z,1018.85
2023-05-04T01:46:44.043Z,1018.91
2023-05-04T01:47:44.014Z,1018.96
2023-05-04T01:48:43.979Z,1018.93
2023-05-04T01:49:43.982Z,1018.89
2023-05-04T01:50:43.956Z,1018.94
2023-05-04T01:51:43.929Z,1018.91
2023-05-04T01:52:43.947Z,1018.97
2023-05-04T01:53:43.968Z,1018.97
2023-05-04T01:54:43.863Z,1018.97
2023-05-04T01:55:43.901Z,1019.00
2023-05-04T01:56:43.845Z,1018.99
2023-05-04T01:57:43.860Z,1019.01
2023-05-04T01:58:43.832Z,1019.03
2023-05-04T01:59:43.858Z,1019.02
2023-05-04T02:00:43.875Z,1019.03
2023-05-04T02:01:43.869Z,1019.07
2023-05-04T02:02:44.015Z,1019.05
2023-05-04T02:03:43.860Z,1019.01
2023-05-04T02:04:43.790Z,1019.07
2023-05-04T02:05:43.771Z,1019.05
2023-05-04T02:06:43.743Z,1019.03
2023-05-04T02:07:43.745Z,1019.08
2023-05-04T02:08:43.710Z,1019.03
2023-05-04T02:09:43.742Z,1019.10
2023-05-04T02:10:43.658Z,1019.04
2023-05-04T02:11:43.657Z,1019.01
2023-05-04T02:12:43.676Z,1019.01
2023-05-04T02:13:43.684Z,1019.11
2023-05-04T02:14:43.610Z,1019.06
2023-05-04T02:15:43.677Z,1019.08
2023-05-04T02:16:43.612Z,1019.09
2023-05-04T02:17:43.668Z,1019.10
2023-05-04T02:18:43.584Z,1019.04
2023-05-04T02:19:43.589Z,1019.06
2023-05-04T02:20:43.645Z,1019.06
2023-05-04T02:21:43.552Z,1019.05
2023-05-04T02:22:43.500Z,1019.06
2023-05-04T02:23:43.526Z,1019.03
2023-05-04T02:24:43.478Z,1018.98
2023-05-04T02:25:43.550Z,1019.02
2023-05-04T02:26:43.486Z,1018.98
2023-05-04T02:27:43.475Z,1019.01
2023-05-04T02:28:43.471Z,1019.01
2023-05-04T02:29:43.455Z,1018.98
2023-05-04T02:30:43.481Z,1019.03
2023-05-04T02:31:43.553Z,1019.03
2023-05-04T02:32:43.456Z,1019.05
2023-05-04T02:33:43.369Z,1018.99
2023-05-04T02:34:43.385Z,1019.03
2023-05-04T02:35:43.377Z,1019.00
2023-05-04T02:36:44.076Z,1018.97
2023-05-04T02:37:43.350Z,1018.98
2023-05-04T02:38:43.353Z,1018.93
2023-05-04T02:39:43.342Z,1018.96
2023-05-04T02:40:43.313Z,1018.99
2023-05-04T02:41:43.266Z,1018.93
2023-05-04T02:42:44.036Z,1018.96
2023-05-04T02:43:43.232Z,1019.00
2023-05-04T02:44:43.267Z,1019.03
2023-05-04T02:45:43.262Z,1018.98
2023-05-04T02:46:43.256Z,1018.98
2023-05-04T02:47:43.276Z,1018.98
2023-05-04T02:48:43.195Z,1018.94
2023-05-04T02:49:43.225Z,1018.91
2023-05-04T02:50:43.161Z,1018.88
2023-05-04T02:51:43.166Z,1018.82
2023-05-04T02:52:43.180Z,1018.80
2023-05-04T02:53:43.122Z,1018.86
2023-05-04T02:54:43.126Z,1018.82
2023-05-04T02:55:43.118Z,1018.83
2023-05-04T02:56:43.075Z,1018.78
2023-05-04T02:57:43.071Z,1018.81
2023-05-04T02:58:43.068Z,1018.85
2023-05-04T02:59:43.031Z,1018.82
2023-05-04T03:00:43.038Z,1018.81
2023-05-04T03:01:43.062Z,1018.83
2023-05-04T03:02:43.105Z,1018.76
2023-05-04T03:03:43.027Z,1018.73
2023-05-04T03:04:43.108Z,1018.77
2023-05-04T03:05:42.945Z,1018.75
2023-05-04T03:06:42.948Z,1018.73
2023-05-04T03:07:42.913Z,1018.73
2023-05-04T03:08:42.948Z,1018.78
2023-05-04T03:09:44.249Z,1018.74
2023-05-04T03:10:42.912Z,1018.75
2023-05-04T03:11:42.860Z,1018.79
2023-05-04T03:12:43.080Z,1018.77
2023-05-04T03:13:42.860Z,1018.79
2023-05-04T03:14:42.903Z,1018.82
2023-05-04T03:15:42.905Z,1018.83
2023-05-04T03:16:42.881Z,1018.82
2023-05-04T03:17:42.792Z,1018.82
2023-05-04T03:18:42.778Z,1018.82
2023-05-04T03:19:42.863Z,1018.85
2023-05-04T03:20:42.797Z,1018.82
2023-05-04T03:21:42.813Z,1018.80
2023-05-04T03:22:42.748Z,1018.76
2023-05-04T03:23:43.052Z,1018.82
2023-05-04T03:24:42.728Z,1018.80
2023-05-04T03:25:42.736Z,1018.77
2023-05-04T03:26:42.688Z,1018.76
2023-05-04T03:27:42.671Z,1018.71
2023-05-04T03:28:42.681Z,1018.69
2023-05-04T03:29:42.661Z,1018.69
2023-05-04T03:30:42.690Z,1018.67
2023-05-04T03:31:42.716Z,1018.73
2023-05-04T03:32:42.633Z,1018.68
2023-05-04T03:33:42.621Z,1018.67
2023-05-04T03:34:42.571Z,1018.67
2023-05-04T03:35:42.573Z,1018.72
2023-05-04T03:36:42.578Z,1018.64
2023-05-04T03:37:42.537Z,1018.66
2023-05-04T03:38:42.518Z,1018.68
2023-05-04T03:39:42.528Z,1018.67
2023-05-04T03:40:42.523Z,1018.68
2023-05-04T03:41:42.571Z,1018.63
2023-05-04T03:42:42.500Z,1018.66
2023-05-04T03:43:42.457Z,1018.65
2023-05-04T03:44:42.518Z,1018.66
2023-05-04T03:45:42.489Z,1018.66
2023-05-04T03:46:43.406Z,1018.64
2023-05-04T03:47:42.456Z,1018.63
2023-05-04T03:48:42.427Z,1018.65
2023-05-04T03:49:42.399Z,1018.61
2023-05-04T03:50:42.366Z,1018.59
2023-05-04T03:51:42.386Z,1018.59
2023-05-04T03:52:42.421Z,1018.59
2023-05-04T03:53:44.648Z,1018.51
2023-05-04T03:54:42.359Z,1018.44
2023-05-04T03:55:42.335Z,1018.52
2023-05-04T03:56:42.315Z,1018.47
2023-05-04T03:57:42.286Z,1018.45
2023-05-04T03:58:42.325Z,1018.48
2023-05-04T03:59:42.262Z,1018.48
2023-05-04T04:00:42.252Z,1018.41
2023-05-04T04:01:42.246Z,1018.46
2023-05-04T04:02:42.342Z,1018.42
2023-05-04T04:03:42.300Z,1018.46
2023-05-04T04:04:49.343Z,1018.40
2023-05-04T04:05:44.859Z,1018.43
2023-05-04T04:06:44.965Z,1018.42
2023-05-04T04:07:42.945Z,1018.39
2023-05-04T04:08:42.129Z,1018.44
2023-05-04T04:09:42.208Z,1018.45
2023-05-04T04:10:42.146Z,1018.54
2023-05-04T04:11:42.078Z,1018.48
2023-05-04T04:12:42.133Z,1018.50
2023-05-04T04:13:42.118Z,1018.48
2023-05-04T04:14:42.061Z,1018.48
2023-05-04T04:15:42.773Z,1018.53
2023-05-04T04:16:42.144Z,1018.53
2023-05-04T04:17:42.016Z,1018.50
2023-05-04T04:18:41.998Z,1018.50
2023-05-04T04:19:42.008Z,1018.52
2023-05-04T04:20:42.001Z,1018.49
2023-05-04T04:21:42.003Z,1018.51
2023-05-04T04:22:41.970Z,1018.51
2023-05-04T04:23:41.923Z,1018.49
2023-05-04T04:24:41.945Z,1018.49
2023-05-04T04:25:44.051Z,1018.53
2023-05-04T04:26:41.920Z,1018.52
2023-05-04T04:27:41.865Z,1018.56
2023-05-04T04:28:41.866Z,1018.56
2023-05-04T04:29:41.850Z,1018.57
2023-05-04T04:30:41.887Z,1018.55
2023-05-04T04:31:41.945Z,1018.62
2023-05-04T04:32:41.918Z,1018.61
2023-05-04T04:33:41.829Z,1018.60
2023-05-04T04:34:41.803Z,1018.54
2023-05-04T04:35:41.786Z,1018.59
2023-05-04T04:36:41.816Z,1018.55
2023-05-04T04:37:41.747Z,1018.55
2023-05-04T04:38:41.769Z,1018.49
2023-05-04T04:39:41.759Z,1018.50
2023-05-04T04:40:41.740Z,1018.46
2023-05-04T04:41:41.745Z,1018.57
2023-05-04T04:42:41.732Z,1018.59
2023-05-04T04:43:41.669Z,1018.56
2023-05-04T04:44:41.689Z,1018.61
2023-05-04T04:45:41.683Z,1018.66
2023-05-04T04:46:41.688Z,1018.63
2023-05-04T04:47:41.769Z,1018.61
2023-05-04T04:48:41.633Z,1018.56
2023-05-04T04:49:41.633Z,1018.65
2023-05-04T04:50:41.617Z,1018.62
2023-05-04T04:51:41.615Z,1018.67
2023-05-04T04:52:41.630Z,1018.68
2023-05-04T04:53:41.570Z,1018.65
2023-05-04T04:54:41.532Z,1018.66
2023-05-04T04:55:41.511Z,1018.68
2023-05-04T04:56:41.529Z,1018.62
2023-05-04T04:57:41.491Z,1018.58
2023-05-04T04:58:41.517Z,1018.60
2023-05-04T04:59:41.481Z,1018.58
2023-05-04T05:00:41.475Z,1018.64
2023-05-04T05:01:41.451Z,1018.59
2023-05-04T05:02:41.456Z,1018.64
2023-05-04T05:03:41.610Z,1018.64
2023-05-04T05:04:41.460Z,1018.66
2023-05-04T05:05:41.402Z,1018.69
2023-05-04T05:06:41.415Z,1018.71
2023-05-04T05:07:41.364Z,1018.70
2023-05-04T05:08:41.385Z,1018.67
2023-05-04T05:09:41.368Z,1018.74
2023-05-04T05:10:43.743Z,1018.69
2023-05-04T05:11:41.301Z,1018.67
2023-05-04T05:12:41.420Z,1018.65
2023-05-04T05:13:41.303Z,1018.72
2023-05-04T05:14:41.329Z,1018.76
2023-05-04T05:15:41.260Z,1018.72
2023-05-04T05:16:41.306Z,1018.69
2023-05-04T05:17:41.275Z,1018.67
2023-05-04T05:18:41.232Z,1018.73
2023-05-04T05:19:42.335Z,1018.72
2023-05-04T05:20:41.193Z,1018.62
2023-05-04T05:21:41.210Z,1018.73
2023-05-04T05:22:41.222Z,1018.68
2023-05-04T05:23:41.188Z,1018.68
2023-05-04T05:24:41.194Z,1018.72
2023-05-04T05:25:41.184Z,1018.67
2023-05-04T05:26:41.137Z,1018.69
2023-05-04T05:27:41.123Z,1018.66
2023-05-04T05:28:41.138Z,1018.66
2023-05-04T05:29:41.107Z,1018.64
2023-05-04T05:30:41.125Z,1018.67
2023-05-04T05:31:41.096Z,1018.64
2023-05-04T05:32:41.082Z,1018.65
2023-05-04T05:33:41.009Z,1018.61
2023-05-04T05:34:41.073Z,1018.60
2023-05-04T05:35:41.007Z,1018.61
2023-05-04T05:36:41.043Z,1018.57
2023-05-04T05:37:40.966Z,1018.57
2023-05-04T05:38:41.013Z,1018.55
2023-05-04T05:39:40.959Z,1018.54
2023-05-04T05:40:40.987Z,1018.54
2023-05-04T05:41:40.994Z,1018.53
2023-05-04T05:42:40.943Z,1018.49
2023-05-04T05:43:40.907Z,1018.44
2023-05-04T05:44:40.914Z,1018.51
2023-05-04T05:45:40.895Z,1018.49
2023-05-04T05:46:40.932Z,1018.53
2023-05-04T05:47:40.900Z,1018.53
2023-05-04T05:48:40.841Z,1018.55
2023-05-04T05:49:40.854Z,1018.54
2023-05-04T05:50:40.840Z,1018.54
2023-05-04T05:51:40.789Z,1018.52
2023-05-04T05:52:40.853Z,1018.49
2023-05-04T05:53:40.762Z,1018.52
2023-05-04T05:54:40.783Z,1018.48
2023-05-04T05:55:40.752Z,1018.50
2023-05-04T05:56:40.758Z,1018.53
2023-05-04T05:57:40.700Z,1018.49
2023-05-04T05:58:40.823Z,1018.44
2023-05-04T05:59:40.740Z,1018.50
2023-05-04T06:00:40.710Z,1018.54
2023-05-04T06:01:40.717Z,1018.45
2023-05-04T06:02:40.710Z,1018.49
2023-05-04T06:03:40.739Z,1018.51
2023-05-04T06:04:40.692Z,1018.54
2023-05-04T06:05:40.620Z,1018.50
2023-05-04T06:06:40.673Z,1018.47
2023-05-04T06:07:40.632Z,1018.49
2023-05-04T06:08:40.563Z,1018.42
2023-05-04T06:09:40.566Z,1018.43
2023-05-04T06:10:40.567Z,1018.48
2023-05-04T06:11:40.529Z,1018.53
2023-05-04T06:12:40.615Z,1018.45
2023-05-04T06:13:40.548Z,1018.41
2023-05-04T06:14:40.519Z,1018.42
2023-05-04T06:15:40.505Z,1018.38
2023-05-04T06:16:40.595Z,1018.33
2023-05-04T06:17:40.475Z,1018.33
2023-05-04T06:18:40.487Z,1018.36
2023-05-04T06:19:40.446Z,1018.38
2023-05-04T06:20:40.458Z,1018.35
2023-05-04T06:21:40.373Z,1018.41
2023-05-04T06:22:40.421Z,1018.44
2023-05-04T06:23:40.394Z,1018.36
2023-05-04T06:24:40.413Z,1018.39
2023-05-04T06:25:40.364Z,1018.37
2023-05-04T06:26:40.339Z,1018.31
2023-05-04T06:27:40.337Z,1018.28
2023-05-04T06:28:40.334Z,1018.30
2023-05-04T06:29:40.304Z,1018.32
2023-05-04T06:30:40.274Z,1018.31
2023-05-04T06:31:40.311Z,1018.25
2023-05-04T06:32:40.374Z,1018.33
2023-05-04T06:33:40.260Z,1018.30
2023-05-04T06:34:40.252Z,1018.25
2023-05-04T06:35:40.220Z,1018.24
2023-05-04T06:36:40.253Z,1018.22
2023-05-04T06:37:40.190Z,1018.24
2023-05-04T06:38:40.178Z,1018.22
2023-05-04T06:39:40.176Z,1018.19
2023-05-04T06:40:40.179Z,1018.22
2023-05-04T06:41:40.149Z,1018.14
2023-05-04T06:42:40.169Z,1018.24
2023-05-04T06:43:40.133Z,1018.26
2023-05-04T06:44:40.131Z,1018.22
2023-05-04T06:45:40.134Z,1018.20
2023-05-04T06:46:40.169Z,1018.22
2023-05-04T06:47:40.092Z,1018.29
2023-05-04T06:48:40.089Z,1018.23
2023-05-04T06:49:40.049Z,1018.25
2023-05-04T06:50:40.069Z,1018.23
2023-05-04T06:51:39.989Z,1018.26
2023-05-04T06:52:40.016Z,1018.26
2023-05-04T06:53:40.036Z,1018.27
2023-05-04T06:54:40.201Z,1018.25
2023-05-04T06:55:39.943Z,1018.25
2023-05-04T06:56:39.979Z,1018.20
2023-05-04T06:57:39.971Z,1018.20
2023-05-04T06:58:39.932Z,1018.16
2023-05-04T06:59:39.904Z,1018.24
2023-05-04T07:00:39.916Z,1018.22
2023-05-04T07:01:40.036Z,1018.22
2023-05-04T07:02:39.870Z,1018.17
2023-05-04T07:03:39.929Z,1018.19
2023-05-04T07:04:39.830Z,1018.16
2023-05-04T07:05:39.871Z,1018.10
2023-05-04T07:06:39.789Z,1018.15
2023-05-04T07:07:39.819Z,1018.13
2023-05-04T07:08:39.787Z,1018.13
2023-05-04T07:09:39.820Z,1018.16
2023-05-04T07:10:39.745Z,1018.14
2023-05-04T07:11:39.788Z,1018.15
2023-05-04T07:12:39.772Z,1018.10
2023-05-04T07:13:39.754Z,1018.14
2023-05-04T07:14:39.727Z,1018.11
2023-05-04T07:15:39.740Z,1018.09
2023-05-04T07:16:39.737Z,1018.13
2023-05-04T07:17:39.700Z,1018.13
2023-05-04T07:18:39.671Z,1018.12
2023-05-04T07:19:39.632Z,1018.13
2023-05-04T07:20:39.661Z,1018.19
2023-05-04T07:21:39.621Z,1018.07
2023-05-04T07:22:39.638Z,1018.03
2023-05-04T07:23:39.603Z,1018.06
2023-05-04T07:24:39.580Z,1018.02
2023-05-04T07:25:39.608Z,1018.01
2023-05-04T07:26:39.603Z,1018.01
2023-05-04T07:27:39.530Z,1017.92
2023-05-04T07:28:39.545Z,1017.97
2023-05-04T07:29:39.523Z,1018.01
2023-05-04T07:30:39.680Z,1017.98
2023-05-04T07:31:39.636Z,1017.95
2023-05-04T07:32:39.479Z,1017.98
2023-05-04T07:33:39.473Z,1017.95
2023-05-04T07:34:45.790Z,1017.94
2023-05-04T07:35:40.440Z,1017.96
2023-05-04T07:36:41.959Z,1018.00
2023-05-04T07:37:39.440Z,1018.01
2023-05-04T07:38:39.433Z,1017.93
2023-05-04T07:39:39.402Z,1017.91
2023-05-04T07:40:39.353Z,1017.88
2023-05-04T07:41:39.356Z,1017.94
2023-05-04T07:42:39.391Z,1017.93
2023-05-04T07:43:39.370Z,1017.88
2023-05-04T07:44:39.285Z,1017.88
2023-05-04T07:45:39.359Z,1017.89
2023-05-04T07:46:39.353Z,1017.82
2023-05-04T07:47:39.326Z,1017.85
2023-05-04T07:48:39.236Z,1017.87
2023-05-04T07:49:39.318Z,1017.84
2023-05-04T07:50:39.229Z,1017.81
2023-05-04T07:51:39.251Z,1017.79
2023-05-04T07:52:39.201Z,1017.76
2023-05-04T07:53:39.183Z,1017.71
2023-05-04T07:54:39.169Z,1017.74
2023-05-04T07:55:39.207Z,1017.76
2023-05-04T07:56:39.160Z,1017.71
2023-05-04T07:57:39.183Z,1017.67
2023-05-04T07:58:39.125Z,1017.68
2023-05-04T07:59:39.155Z,1017.68
2023-05-04T08:00:39.079Z,1017.68
2023-05-04T08:01:39.760Z,1017.62
2023-05-04T08:02:39.164Z,1017.62
2023-05-04T08:03:39.074Z,1017.60
2023-05-04T08:04:39.044Z,1017.62
2023-05-04T08:05:39.082Z,1017.62
2023-05-04T08:06:39.069Z,1017.63
2023-05-04T08:07:39.068Z,1017.68
2023-05-04T08:08:39.006Z,1017.69
2023-05-04T08:09:39.002Z,1017.67
2023-05-04T08:10:39.061Z,1017.65
2023-05-04T08:11:39.023Z,1017.62
2023-05-04T08:12:39.035Z,1017.61
2023-05-04T08:13:38.941Z,1017.58
2023-05-04T08:14:38.940Z,1017.60
2023-05-04T08:15:38.897Z,1017.59
2023-05-04T08:16:38.929Z,1017.57
2023-05-04T08:17:38.899Z,1017.54
2023-05-04T08:18:38.888Z,1017.55
2023-05-04T08:19:38.847Z,1017.51
2023-05-04T08:20:38.859Z,1017.51
2023-05-04T08:21:38.818Z,1017.47
2023-05-04T08:22:38.870Z,1017.53
2023-05-04T08:23:38.847Z,1017.48
2023-05-04T08:24:38.778Z,1017.51
2023-05-04T08:25:38.769Z,1017.49
2023-05-04T08:26:38.960Z,1017.47
2023-05-04T08:27:38.807Z,1017.48
2023-05-04T08:28:38.762Z,1017.40
2023-05-04T08:29:38.741Z,1017.40
2023-05-04T08:30:38.727Z,1017.40
2023-05-04T08:31:38.790Z,1017.41
2023-05-04T08:32:38.718Z,1017.42
2023-05-04T08:33:38.666Z,1017.32
2023-05-04T08:34:38.742Z,1017.35
2023-05-04T08:35:38.637Z,1017.37
2023-05-04T08:36:38.653Z,1017.33
2023-05-04T08:37:38.687Z,1017.38
2023-05-04T08:38:38.624Z,1017.35
2023-05-04T08:39:41.264Z,1017.30
2023-05-04T08:40:38.618Z,1017.35
2023-05-04T08:41:38.562Z,1017.31
2023-05-04T08:42:38.615Z,1017.29
2023-05-04T08:43:38.536Z,1017.30
2023-05-04T08:44:38.532Z,1017.29
2023-05-04T08:45:38.626Z,1017.34
2023-05-04T08:46:38.535Z,1017.28
2023-05-04T08:47:38.557Z,1017.24
2023-05-04T08:48:38.526Z,1017.34
2023-05-04T08:49:38.501Z,1017.25
2023-05-04T08:50:38.466Z,1017.29
2023-05-04T08:51:38.438Z,1017.31
2023-05-04T08:52:38.460Z,1017.29
2023-05-04T08:53:38.431Z,1017.22
2023-05-04T08:54:38.439Z,1017.16
2023-05-04T08:55:38.417Z,1017.23
2023-05-04T08:56:38.393Z,1017.16
2023-05-04T08:57:38.377Z,1017.15
2023-05-04T08:58:38.398Z,1017.15
2023-05-04T08:59:38.364Z,1017.13
2023-05-04T09:00:38.375Z,1017.12
2023-05-04T09:01:38.347Z,1017.15
2023-05-04T09:02:38.311Z,1017.15
2023-05-04T09:03:38.411Z,1017.10
2023-05-04T09:04:38.278Z,1017.15
2023-05-04T09:05:38.326Z,1017.15
2023-05-04T09:06:38.244Z,1017.21
2023-05-04T09:07:38.264Z,1017.12
2023-05-04T09:08:38.285Z,1017.11
2023-05-04T09:09:38.204Z,1017.16
2023-05-04T09:10:38.258Z,1017.14
2023-05-04T09:11:38.257Z,1017.14
2023-05-04T09:12:38.236Z,1017.16
2023-05-04T09:13:38.168Z,1017.14
2023-05-04T09:14:38.118Z,1017.16
2023-05-04T09:15:38.116Z,1017.10
2023-05-04T09:16:38.170Z,1017.08
2023-05-04T09:17:47.536Z,1017.08
2023-05-04T09:18:39.092Z,1017.14
2023-05-04T09:19:38.097Z,1017.12
2023-05-04T09:20:38.050Z,1017.08
2023-05-04T09:21:38.062Z,1017.06
2023-05-04T09:22:38.018Z,1017.07
2023-05-04T09:23:38.109Z,1017.06
2023-05-04T09:24:38.010Z,1016.98
2023-05-04T09:25:38.004Z,1017.04
2023-05-04T09:26:37.964Z,1017.05
2023-05-04T09:27:37.998Z,1017.08
2023-05-04T09:28:37.993Z,1017.03
2023-05-04T09:29:37.925Z,1017.02
2023-05-04T09:30:37.954Z,1016.96
2023-05-04T09:31:38.022Z,1016.97
2023-05-04T09:32:37.909Z,1016.90
2023-05-04T09:33:37.903Z,1016.93
2023-05-04T09:34:37.880Z,1016.85
2023-05-04T09:35:37.869Z,1016.86
2023-05-04T09:36:37.848Z,1016.86
2023-05-04T09:37:38.106Z,1016.81
2023-05-04T09:38:37.872Z,1016.83
2023-05-04T09:39:37.817Z,1016.77
2023-05-04T09:40:37.816Z,1016.71
2023-05-04T09:41:38.771Z,1016.68
2023-05-04T09:42:37.803Z,1016.68
2023-05-04T09:43:37.800Z,1016.63
2023-05-04T09:44:37.738Z,1016.64
2023-05-04T09:45:37.733Z,1016.61
2023-05-04T09:46:37.779Z,1016.55
2023-05-04T09:47:37.784Z,1016.50
2023-05-04T09:48:37.697Z,1016.59
2023-05-04T09:49:37.717Z,1016.58
2023-05-04T09:50:37.718Z,1016.58
2023-05-04T09:51:37.688Z,1016.57
2023-05-04T09:52:37.645Z,1016.50
2023-05-04T09:53:37.622Z,1016.53
2023-05-04T09:54:37.653Z,1016.52
2023-05-04T09:55:37.618Z,1016.50
2023-05-04T09:56:37.599Z,1016.42
2023-05-04T09:57:37.576Z,1016.45
2023-05-04T09:58:37.542Z,1016.37
2023-05-04T09:59:37.580Z,1016.45
2023-05-04T10:00:37.538Z,1016.40
2023-05-04T10:01:37.619Z,1016.41
2023-05-04T10:02:37.541Z,1016.41
2023-05-04T10:03:37.511Z,1016.38
2023-05-04T10:04:45.564Z,1016.37
2023-05-04T10:05:37.483Z,1016.28
2023-05-04T10:06:37.450Z,1016.28
2023-05-04T10:07:41.620Z,1016.27
2023-05-04T10:08:37.405Z,1016.26
2023-05-04T10:09:37.414Z,1016.30
2023-05-04T10:10:37.393Z,1016.29
2023-05-04T10:11:37.388Z,1016.28
2023-05-04T10:12:37.406Z,1016.21
2023-05-04T10:13:37.357Z,1016.24
2023-05-04T10:14:37.331Z,1016.20
2023-05-04T10:15:37.338Z,1016.20
2023-05-04T10:16:37.645Z,1016.30
2023-05-04T10:17:37.326Z,1016.20
2023-05-04T10:18:37.267Z,1016.19
2023-05-04T10:19:37.321Z,1016.11
2023-05-04T10:20:37.254Z,1016.26
2023-05-04T10:21:37.286Z,1016.12
2023-05-04T10:22:37.278Z,1016.16
2023-05-04T10:23:37.225Z,1016.15
2023-05-04T10:24:37.253Z,1016.08
2023-05-04T10:25:37.228Z,1016.03
2023-05-04T10:26:37.200Z,1016.07
2023-05-04T10:27:37.201Z,1016.06
2023-05-04T10:28:37.134Z,1015.98
2023-05-04T10:29:37.165Z,1015.93
2023-05-04T10:30:37.139Z,1015.92
2023-05-04T10:31:37.131Z,1015.93
2023-05-04T10:32:37.134Z,1015.93
2023-05-04T10:33:37.112Z,1015.96
2023-05-04T10:34:37.063Z,1015.94
2023-05-04T10:35:37.056Z,1015.84
2023-05-04T10:36:37.120Z,1015.93
2023-05-04T10:37:37.077Z,1015.87
2023-05-04T10:38:37.063Z,1015.83
2023-05-04T10:39:37.035Z,1015.83
2023-05-04T10:40:36.987Z,1015.82
2023-05-04T10:41:37.000Z,1015.87
2023-05-04T10:42:37.157Z,1015.80
2023-05-04T10:43:36.992Z,1015.89
2023-05-04T10:44:36.953Z,1015.78
2023-05-04T10:45:36.935Z,1015.79
2023-05-04T10:46:36.913Z,1015.73
2023-05-04T10:47:36.979Z,1015.75
2023-05-04T10:48:36.953Z,1015.75
2023-05-04T10:49:36.902Z,1015.82
2023-05-04T10:50:36.889Z,1015.74
2023-05-04T10:51:46.680Z,1015.74
2023-05-04T10:52:37.918Z,1015.63
2023-05-04T10:53:36.818Z,1015.71
2023-05-04T10:54:36.813Z,1015.67
2023-05-04T10:55:36.795Z,1015.63
2023-05-04T10:56:36.786Z,1015.64
2023-05-04T10:57:36.793Z,1015.66
2023-05-04T10:58:36.775Z,1015.65
2023-05-04T10:59:37.099Z,1015.65
2023-05-04T11:00:36.733Z,1015.53
2023-05-04T11:01:36.761Z,1015.63
2023-05-04T11:02:36.904Z,1015.46
2023-05-04T11:03:36.882Z,1015.45
2023-05-04T11:04:36.669Z,1015.48
2023-05-04T11:05:36.679Z,1015.41
2023-05-04T11:06:36.638Z,1015.45
2023-05-04T11:07:36.681Z,1015.39
2023-05-04T11:08:36.631Z,1015.38
2023-05-04T11:09:36.685Z,1015.35
2023-05-04T11:10:36.642Z,1015.31
2023-05-04T11:11:36.619Z,1015.33
2023-05-04T11:12:36.587Z,1015.29
2023-05-04T11:13:36.640Z,1015.24
2023-05-04T11:14:36.570Z,1015.22
2023-05-04T11:15:36.517Z,1015.19
2023-05-04T11:16:36.610Z,1015.24
2023-05-04T11:17:36.627Z,1015.22
2023-05-04T11:18:36.553Z,1015.24
2023-05-04T11:19:36.492Z,1015.17
2023-05-04T11:20:36.493Z,1015.13
2023-05-04T11:21:36.503Z,1015.13
2023-05-04T11:22:36.560Z,1015.12
2023-05-04T11:23:36.570Z,1015.12
2023-05-04T11:24:36.447Z,1015.15
2023-05-04T11:25:36.389Z,1015.17
2023-05-04T11:26:36.460Z,1015.08
2023-05-04T11:27:36.366Z,1015.11
2023-05-04T11:28:36.443Z,1015.10
2023-05-04T11:29:36.386Z,1015.07
2023-05-04T11:30:36.466Z,1015.10
2023-05-04T11:31:36.390Z,1015.07
2023-05-04T11:32:36.360Z,1015.02
2023-05-04T11:33:36.430Z,1015.03
2023-05-04T11:34:36.418Z,1014.98
2023-05-04T11:35:36.292Z,1014.96
2023-05-04T11:36:36.289Z,1014.93
2023-05-04T11:37:36.388Z,1014.87
2023-05-04T11:38:36.250Z,1014.88
2023-05-04T11:39:36.241Z,1014.95
2023-05-04T11:40:36.318Z,1014.90
2023-05-04T11:41:36.191Z,1014.87
2023-05-04T11:42:36.212Z,1014.85
2023-05-04T11:43:36.182Z,1014.84
2023-05-04T11:44:36.161Z,1014.84
2023-05-04T11:45:36.242Z,1014.70
2023-05-04T11:46:36.170Z,1014.75
2023-05-04T11:47:36.209Z,1014.76
2023-05-04T11:48:36.128Z,1014.77
2023-05-04T11:49:36.136Z,1014.71
2023-05-04T11:50:36.085Z,1014.75
2023-05-04T11:51:36.051Z,1014.71
2023-05-04T11:52:36.049Z,1014.71
2023-05-04T11:53:36.139Z,1014.66
2023-05-04T11:54:36.154Z,1014.68
2023-05-04T11:55:36.064Z,1014.58
2023-05-04T11:56:36.036Z,1014.63
2023-05-04T11:57:36.172Z,1014.59
2023-05-04T11:58:36.092Z,1014.66
2023-05-04T11:59:36.091Z,1014.62
2023-05-04T12:00:36.197Z,1014.66
2023-05-04T12:01:35.945Z,1014.54
2023-05-04T12:02:36.088Z,1014.56
2023-05-04T12:03:52.396Z,1014.60
2023-05-04T12:04:36.902Z,1014.56
2023-05-04T12:05:35.872Z,1014.61